createdAt,value
2018-06-21T16:43:19.433Z,34.73
2018-06-21T16:44:19.479Z,35.31
2018-06-21T16:45:19.530Z,35.41
2018-06-21T16:46:19.571Z,35.33
2018-06-21T16:47:19.750Z,34.84
2018-06-21T16:48:19.665Z,34.55
2018-06-21T16:49:19.720Z,34.38
2018-06-21T16:50:19.765Z,34.28
2018-06-21T16:51:19.805Z,34.57
2018-06-21T16:52:19.855Z,34.57
2018-06-21T16:53:20.075Z,35.39
2018-06-21T16:54:20.043Z,35.12
2018-06-21T16:55:19.992Z,35.20
2018-06-21T16:56:20.041Z,35.50
2018-06-21T16:57:20.091Z,34.67
2018-06-21T16:58:20.129Z,34.27
2018-06-21T16:59:20.199Z,34.44
2018-06-21T17:00:20.221Z,35.21
2018-06-21T17:01:20.267Z,34.92
2018-06-21T17:02:20.315Z,34.63
2018-06-21T17:03:20.362Z,34.63
2018-06-21T17:04:20.407Z,34.52
2018-06-21T17:05:20.457Z,35.66
2018-06-21T17:06:20.499Z,36.53
2018-06-21T17:07:20.547Z,37.27
2018-06-21T17:08:20.590Z,38.41
2018-06-21T17:09:20.636Z,39.01
2018-06-21T17:10:20.690Z,39.16
2018-06-21T17:11:20.726Z,40.19
2018-06-21T17:12:20.773Z,40.86
2018-06-21T17:13:20.817Z,40.95
2018-06-21T17:14:20.861Z,41.34
2018-06-21T17:15:20.911Z,42.16
2018-06-21T17:16:20.961Z,42.26
2018-06-21T17:17:20.995Z,42.26
2018-06-21T17:18:21.046Z,42.55
2018-06-21T17:19:21.241Z,42.28
2018-06-21T17:20:21.128Z,42.57
2018-06-21T17:21:21.176Z,42.21
2018-06-21T17:22:21.214Z,41.92
2018-06-21T17:23:21.259Z,42.28
2018-06-21T17:24:21.305Z,42.28
2018-06-21T17:25:21.345Z,42.93
2018-06-21T17:26:21.395Z,43.01
2018-06-21T17:27:21.434Z,44.74
2018-06-21T17:28:21.485Z,45.10
2018-06-21T17:29:21.524Z,45.85
2018-06-21T17:30:21.564Z,46.23
2018-06-21T17:31:21.611Z,46.59
2018-06-21T17:32:21.648Z,46.12
2018-06-21T17:33:21.686Z,45.92
2018-06-21T17:34:21.731Z,45.92
2018-06-21T17:35:21.774Z,46.31
2018-06-21T17:36:21.816Z,46.02
2018-06-21T17:37:21.862Z,46.02
2018-06-21T17:38:21.906Z,46.21
2018-06-21T17:39:21.940Z,45.92
2018-06-21T17:40:21.989Z,46.89
2018-06-21T17:41:22.022Z,46.77
2018-06-21T17:42:22.065Z,46.96
2018-06-21T17:43:22.122Z,46.86
2018-06-21T17:44:22.148Z,47.34
2018-06-21T17:45:22.207Z,47.44
2018-06-21T17:46:22.232Z,47.63
2018-06-21T17:47:22.269Z,47.51
2018-06-21T17:48:22.316Z,47.99
2018-06-21T17:49:22.353Z,47.99
2018-06-21T17:50:22.395Z,47.61
2018-06-21T17:51:22.466Z,47.72
2018-06-21T17:52:22.478Z,47.53
2018-06-21T17:53:22.513Z,47.92
2018-06-21T17:54:22.555Z,48.30
2018-06-21T17:55:22.600Z,48.21
2018-06-21T17:56:22.637Z,48.88
2018-06-21T17:57:22.687Z,48.59
2018-06-21T17:58:22.722Z,48.95
2018-06-21T17:59:22.756Z,49.52
2018-06-21T18:00:22.806Z,49.24
2018-06-21T18:01:22.835Z,49.91
2018-06-21T18:02:22.931Z,49.82
2018-06-21T18:03:22.920Z,49.41
2018-06-21T18:04:22.961Z,49.60
2018-06-21T18:05:22.998Z,50.08
2018-06-21T18:06:23.038Z,50.94
2018-06-21T18:07:23.081Z,50.75
2018-06-21T18:08:23.118Z,51.14
2018-06-21T18:09:23.157Z,50.37
2018-06-21T18:10:23.373Z,50.27
2018-06-21T18:11:23.236Z,51.14
2018-06-21T18:12:23.285Z,50.94
2018-06-21T18:13:23.343Z,51.32
2018-06-21T18:14:23.355Z,51.81
2018-06-21T18:15:23.407Z,52.67
2018-06-21T18:16:23.435Z,52.76
2018-06-21T18:17:23.475Z,53.44
2018-06-21T18:18:23.513Z,53.60
2018-06-21T18:19:23.563Z,53.53
2018-06-21T18:20:23.592Z,53.89
2018-06-21T18:21:23.631Z,54.11
2018-06-21T18:22:23.672Z,53.99
2018-06-21T18:23:23.712Z,53.89
2018-06-21T18:24:23.753Z,53.99
2018-06-21T18:25:23.788Z,53.99
2018-06-21T18:26:23.836Z,54.27
2018-06-21T18:27:23.869Z,54.46
2018-06-21T18:28:23.907Z,54.11
2018-06-21T18:29:23.953Z,54.75
2018-06-21T18:30:23.993Z,54.46
2018-06-21T18:31:24.029Z,54.66
2018-06-21T18:32:24.063Z,54.75
2018-06-21T18:33:24.103Z,55.33
2018-06-21T18:34:24.146Z,55.13
2018-06-21T18:35:24.246Z,55.62
2018-06-21T18:36:24.233Z,55.62
2018-06-21T18:37:24.259Z,55.52
2018-06-21T18:38:24.298Z,55.90
2018-06-21T18:39:24.338Z,56.00
2018-06-21T18:40:24.377Z,55.90
2018-06-21T18:41:24.416Z,55.90
2018-06-21T18:42:24.454Z,56.00
2018-06-21T18:43:24.498Z,56.19
2018-06-21T18:44:24.555Z,56.67
2018-06-21T18:45:24.576Z,56.86
2018-06-21T18:46:24.612Z,57.34
2018-06-21T18:47:24.652Z,57.34
2018-06-21T18:48:24.689Z,57.43
2018-06-21T18:49:24.728Z,57.82
2018-06-21T18:50:24.765Z,58.11
2018-06-21T18:51:24.818Z,58.59
2018-06-21T18:52:24.845Z,58.59
2018-06-21T18:53:24.881Z,58.69
2018-06-21T18:54:24.948Z,59.13
2018-06-21T18:55:24.961Z,59.71
2018-06-21T18:56:25.004Z,59.61
2018-06-21T18:57:25.042Z,59.42
2018-06-21T18:58:25.077Z,59.61
2018-06-21T18:59:25.117Z,60.19
2018-06-21T19:00:25.166Z,60.38
2018-06-21T19:01:25.204Z,60.67
2018-06-21T19:02:25.239Z,61.24
2018-06-21T19:03:25.411Z,61.15
2018-06-21T19:04:25.383Z,61.05
2018-06-21T19:05:25.348Z,61.15
2018-06-21T19:06:25.394Z,61.05
2018-06-21T19:07:25.426Z,61.34
2018-06-21T19:08:25.464Z,61.69
2018-06-21T19:09:25.511Z,61.40
2018-06-21T19:10:25.657Z,61.69
2018-06-21T19:11:25.591Z,61.98
2018-06-21T19:12:25.628Z,62.07
2018-06-21T19:13:25.666Z,62.36
2018-06-21T19:14:25.700Z,62.17
2018-06-21T19:15:25.734Z,62.65
2018-06-21T19:16:25.772Z,62.93
2018-06-21T19:17:25.814Z,62.84
2018-06-21T19:18:25.852Z,63.10
2018-06-21T19:19:25.906Z,63.10
2018-06-21T19:20:25.926Z,64.05
2018-06-21T19:21:25.964Z,63.96
2018-06-21T19:22:26.003Z,63.57
2018-06-21T19:23:26.051Z,64.34
2018-06-21T19:24:26.080Z,64.34
2018-06-21T19:25:26.120Z,64.15
2018-06-21T19:26:26.199Z,64.43
2018-06-21T19:27:26.204Z,64.43
2018-06-21T19:28:26.241Z,64.82
2018-06-21T19:29:26.441Z,65.11
2018-06-21T19:30:26.310Z,65.11
2018-06-21T19:31:26.348Z,65.11
2018-06-21T19:32:26.387Z,66.35
2018-06-21T19:33:26.426Z,66.06
2018-06-21T19:34:26.469Z,65.88
2018-06-21T19:35:26.504Z,66.64
2018-06-21T19:36:26.551Z,66.54
2018-06-21T19:37:26.575Z,66.54
2018-06-21T19:38:26.615Z,66.64
2018-06-21T19:39:26.653Z,66.54
2018-06-21T19:40:26.692Z,66.54
2018-06-21T19:41:26.730Z,66.64
2018-06-21T19:42:26.778Z,66.54
2018-06-21T19:43:26.809Z,66.83
2018-06-21T19:44:26.846Z,66.83
2018-06-21T19:45:26.889Z,66.64
2018-06-21T19:46:26.928Z,66.64
2018-06-21T19:47:26.964Z,66.54
2018-06-21T19:48:26.997Z,66.54
2018-06-21T19:49:27.067Z,66.16
2018-06-21T19:50:27.073Z,66.64
2018-06-21T19:51:27.110Z,66.93
2018-06-21T19:52:27.149Z,66.74
2018-06-21T19:53:27.190Z,66.83
2018-06-21T19:54:27.225Z,66.74
2018-06-21T19:55:27.266Z,67.21
2018-06-21T19:56:27.304Z,66.54
2018-06-21T19:57:27.345Z,66.54
2018-06-21T19:58:27.459Z,66.74
2018-06-21T19:59:27.418Z,67.31
2018-06-21T20:00:27.557Z,67.21
2018-06-21T20:01:27.497Z,67.79
2018-06-21T20:02:27.544Z,67.98
2018-06-21T20:03:27.568Z,68.17
2018-06-21T20:04:27.609Z,67.79
2018-06-21T20:05:27.651Z,67.98
2018-06-21T20:06:27.688Z,68.65
2018-06-21T20:07:27.732Z,68.94
2018-06-21T20:08:27.761Z,68.84
2018-06-21T20:09:27.803Z,68.65
2018-06-21T20:10:27.833Z,69.03
2018-06-21T20:11:27.869Z,69.60
2018-06-21T20:12:27.912Z,69.60
2018-06-21T20:13:27.946Z,69.57
2018-06-21T20:14:27.986Z,69.03
2018-06-21T20:15:28.077Z,69.48
2018-06-21T20:16:28.062Z,70.15
2018-06-21T20:17:28.101Z,70.24
2018-06-21T20:18:28.186Z,71.11
2018-06-21T20:19:28.181Z,71.97
2018-06-21T20:20:28.212Z,72.25
2018-06-21T20:21:28.251Z,72.34
2018-06-21T20:22:28.298Z,73.21
2018-06-21T20:23:28.328Z,73.94
2018-06-21T20:24:28.364Z,75.95
2018-06-21T20:25:28.405Z,86.80
2018-06-21T20:26:28.449Z,92.83
2018-06-21T20:27:28.483Z,96.70
2018-06-21T20:28:28.515Z,96.99
2018-06-21T20:29:28.557Z,96.46
2018-06-21T20:30:28.592Z,94.93
2018-06-21T20:31:28.628Z,97.99
2018-06-21T20:32:28.666Z,98.52
2018-06-21T20:33:28.703Z,96.32
2018-06-21T20:34:28.741Z,96.80
2018-06-21T20:35:28.779Z,95.65
2018-06-21T20:36:28.815Z,96.13
2018-06-21T20:37:28.860Z,93.07
2018-06-21T20:38:28.892Z,92.65
2018-06-21T20:39:28.928Z,92.65
2018-06-21T20:40:28.976Z,91.02
2018-06-21T20:41:29.003Z,93.60
2018-06-21T20:42:29.043Z,92.83
2018-06-21T20:43:29.076Z,93.02
2018-06-21T20:44:29.113Z,93.22
2018-06-21T20:45:29.154Z,89.88
2018-06-21T20:46:29.188Z,97.32
2018-06-21T20:47:29.225Z,95.79
2018-06-21T20:48:29.267Z,94.84
2018-06-21T20:49:29.315Z,95.61
2018-06-21T20:50:29.390Z,96.08
2018-06-21T20:51:29.373Z,95.32
2018-06-21T20:52:29.414Z,95.79
2018-06-21T20:53:29.466Z,96.75
2018-06-21T20:54:29.484Z,96.08
2018-06-21T20:55:29.522Z,95.22
2018-06-21T20:56:29.565Z,95.61
2018-06-21T20:57:29.596Z,95.51
2018-06-21T20:58:29.632Z,95.12
2018-06-21T20:59:29.672Z,95.56
2018-06-21T21:00:29.709Z,95.27
2018-06-21T21:01:29.746Z,95.56
2018-06-21T21:02:29.889Z,95.56
2018-06-21T21:03:29.853Z,94.98
2018-06-21T21:04:29.862Z,95.08
2018-06-21T21:05:29.889Z,94.41
2018-06-21T21:06:29.926Z,96.22
2018-06-21T21:07:29.963Z,93.84
2018-06-21T21:08:30.000Z,93.74
2018-06-21T21:09:30.046Z,94.41
2018-06-21T21:10:30.073Z,94.12
2018-06-21T21:11:30.115Z,94.22
2018-06-21T21:12:30.145Z,94.41
2018-06-21T21:13:30.182Z,96.13
2018-06-21T21:14:30.217Z,93.93
2018-06-21T21:15:30.262Z,94.84
2018-06-21T21:16:30.325Z,94.93
2018-06-21T21:17:30.326Z,95.32
2018-06-21T21:18:30.363Z,94.17
2018-06-21T21:19:30.400Z,95.51
2018-06-21T21:20:30.440Z,94.07
2018-06-21T21:21:30.474Z,95.12
2018-06-21T21:22:30.533Z,94.56
2018-06-21T21:23:30.549Z,94.46
2018-06-21T21:24:30.616Z,95.12
2018-06-21T21:25:30.621Z,95.61
2018-06-21T21:26:30.681Z,94.93
2018-06-21T21:27:30.744Z,95.61
2018-06-21T21:28:30.812Z,95.41
2018-06-21T21:29:30.767Z,95.70
2018-06-21T21:30:30.806Z,95.03
2018-06-21T21:31:30.847Z,95.89
2018-06-21T21:32:30.945Z,95.32
2018-06-21T21:33:30.912Z,97.71
2018-06-21T21:34:30.949Z,96.56
2018-06-21T21:35:30.997Z,98.37
2018-06-21T21:36:31.089Z,97.42
2018-06-21T21:37:31.057Z,98.08
2018-06-21T21:38:31.095Z,98.42
2018-06-21T21:39:31.131Z,98.99
2018-06-21T21:40:31.172Z,98.13
2018-06-21T21:41:31.233Z,99.66
2018-06-21T21:42:31.245Z,99.37
2018-06-21T21:43:31.278Z,99.08
2018-06-21T21:44:31.315Z,98.80
2018-06-21T21:45:31.350Z,99.47
2018-06-21T21:46:31.388Z,99.76
2018-06-21T21:47:31.424Z,99.08
2018-06-21T21:48:31.460Z,99.08
2018-06-21T21:49:31.501Z,98.80
2018-06-21T21:50:31.533Z,99.57
2018-06-21T21:51:31.568Z,99.37
2018-06-21T21:52:31.666Z,99.95
2018-06-21T21:53:31.652Z,99.57
2018-06-21T21:54:31.687Z,99.99
2018-06-21T21:55:31.716Z,99.57
2018-06-21T21:56:31.755Z,99.99
2018-06-21T21:57:31.805Z,99.85
2018-06-21T21:58:31.826Z,99.66
2018-06-21T21:59:31.861Z,99.76
2018-06-21T22:00:31.898Z,99.76
2018-06-21T22:01:31.964Z,99.76
2018-06-21T22:02:31.969Z,99.99
2018-06-21T22:03:32.009Z,99.85
2018-06-21T22:04:32.054Z,99.95
2018-06-21T22:05:32.080Z,99.76
2018-06-21T22:06:32.159Z,99.95
2018-06-21T22:07:32.163Z,99.85
2018-06-21T22:08:32.192Z,99.99
2018-06-21T22:09:32.242Z,99.99
2018-06-21T22:10:32.263Z,99.99
2018-06-21T22:11:32.300Z,99.95
2018-06-21T22:12:32.336Z,99.99
2018-06-21T22:13:32.375Z,99.71
2018-06-21T22:14:32.414Z,99.71
2018-06-21T22:15:32.446Z,99.99
2018-06-21T22:16:32.482Z,99.99
2018-06-21T22:17:32.523Z,99.99
2018-06-21T22:18:32.552Z,99.99
2018-06-21T22:19:32.590Z,99.99
2018-06-21T22:20:32.629Z,99.99
2018-06-21T22:21:32.675Z,99.99
2018-06-21T22:22:32.699Z,99.99
2018-06-21T22:23:32.737Z,99.80
2018-06-21T22:24:32.772Z,99.99
2018-06-21T22:25:32.808Z,99.99
2018-06-21T22:26:32.852Z,99.99
2018-06-21T22:27:32.882Z,99.99
2018-06-21T22:28:32.917Z,99.71
2018-06-21T22:29:32.953Z,99.80
2018-06-21T22:30:33.012Z,99.99
2018-06-21T22:31:33.027Z,99.99
2018-06-21T22:32:33.062Z,99.99
2018-06-21T22:33:33.099Z,99.99
2018-06-21T22:34:33.144Z,99.99
2018-06-21T22:35:33.173Z,99.99
2018-06-21T22:36:33.207Z,99.99
2018-06-21T22:37:33.252Z,99.99
2018-06-21T22:38:33.285Z,99.99
2018-06-21T22:39:33.317Z,99.99
2018-06-21T22:40:33.354Z,99.99
2018-06-21T22:41:33.389Z,99.99
2018-06-21T22:42:33.429Z,99.99
2018-06-21T22:43:33.461Z,99.99
2018-06-21T22:44:33.498Z,99.99
2018-06-21T22:45:33.535Z,99.99
2018-06-21T22:46:33.579Z,99.99
2018-06-21T22:47:33.607Z,99.99
2018-06-21T22:48:33.642Z,99.99
2018-06-21T22:49:33.682Z,99.99
2018-06-21T22:50:33.770Z,99.99
2018-06-21T22:51:33.770Z,99.99
2018-06-21T22:52:33.788Z,99.99
2018-06-21T22:53:33.821Z,99.99
2018-06-21T22:54:33.858Z,99.99
2018-06-21T22:55:33.895Z,99.99
2018-06-21T22:56:33.933Z,99.99
2018-06-21T22:57:33.974Z,99.99
2018-06-21T22:58:34.006Z,99.99
2018-06-21T22:59:34.039Z,99.99
2018-06-21T23:00:34.086Z,99.99
2018-06-21T23:01:34.113Z,99.99
2018-06-21T23:02:34.147Z,99.99
2018-06-21T23:03:34.184Z,99.99
2018-06-21T23:04:34.272Z,99.99
2018-06-21T23:05:34.275Z,99.99
2018-06-21T23:06:34.300Z,99.99
2018-06-21T23:07:34.333Z,99.99
2018-06-21T23:08:34.364Z,99.99
2018-06-21T23:09:34.401Z,99.99
2018-06-21T23:10:34.435Z,99.99
2018-06-21T23:11:34.484Z,99.99
2018-06-21T23:12:34.510Z,99.99
2018-06-21T23:13:34.547Z,99.99
2018-06-21T23:14:34.597Z,99.99
2018-06-21T23:15:34.622Z,99.99
2018-06-21T23:16:34.653Z,99.99
2018-06-21T23:17:34.691Z,99.99
2018-06-21T23:18:34.777Z,99.99
2018-06-21T23:19:34.760Z,99.99
2018-06-21T23:20:34.798Z,99.99
2018-06-21T23:21:34.833Z,99.99
2018-06-21T23:22:34.868Z,99.99
2018-06-21T23:23:34.903Z,99.99
2018-06-21T23:24:34.943Z,99.99
2018-06-21T23:25:34.977Z,99.99
2018-06-21T23:26:35.012Z,99.99
2018-06-21T23:27:35.052Z,99.99
2018-06-21T23:28:35.088Z,99.99
2018-06-21T23:29:35.121Z,99.99
2018-06-21T23:30:35.161Z,99.99
2018-06-21T23:31:35.192Z,99.99
2018-06-21T23:32:35.230Z,99.99
2018-06-21T23:33:35.266Z,99.99
2018-06-21T23:34:35.300Z,99.99
2018-06-21T23:35:35.336Z,99.99
2018-06-21T23:36:35.373Z,99.99
2018-06-21T23:37:35.412Z,99.99
2018-06-21T23:38:35.451Z,99.99
2018-06-21T23:39:35.487Z,99.99
2018-06-21T23:40:35.517Z,99.99
2018-06-21T23:41:35.550Z,99.99
2018-06-21T23:42:35.590Z,99.99
2018-06-21T23:43:35.623Z,99.99
2018-06-21T23:44:35.822Z,99.99
2018-06-21T23:45:35.695Z,99.99
2018-06-21T23:46:35.731Z,99.99
2018-06-21T23:47:35.767Z,99.99
2018-06-21T23:48:35.804Z,99.99
2018-06-21T23:49:35.842Z,99.99
2018-06-21T23:50:35.875Z,99.99
2018-06-21T23:51:35.918Z,99.99
2018-06-21T23:52:35.948Z,99.99
2018-06-21T23:53:35.981Z,99.99
2018-06-21T23:54:36.020Z,99.99
2018-06-21T23:55:36.054Z,99.99
2018-06-21T23:56:36.089Z,99.99
2018-06-21T23:57:36.123Z,99.99
2018-06-21T23:58:36.161Z,99.99
2018-06-21T23:59:36.195Z,99.99
